Time;durP1;ratioP1;P1;durP2;ratioP2;P2;SDS_P1;SDS_P2;PMS_P1;PMS_P2;Temp;Humidity;BMP_temperature;BMP_pressure;BME280_temperature;BME280_humidity;BME280_pressure;Samples;Min_cycle;Max_cycle;Signal;HPM_P1;HPM_P2
2024/02/01 00:01:35;;;;;;;7.47;3.60;;;;;;;6.68;100.00;101575.22;5022075;28;20054;-77
2024/02/01 00:04:03;;;;;;;3.80;3.05;;;;;;;6.74;100.00;101565.50;5022863;28;20034;-76
2024/02/01 00:06:33;;;;;;;5.15;3.13;;;;;;;6.78;100.00;101557.53;5023230;28;20069;-78
2024/02/01 00:09:03;;;;;;;5.10;3.80;;;;;;;6.80;100.00;101568.91;5035274;28;20073;-77
2024/02/01 00:11:31;;;;;;;4.57;3.13;;;;;;;6.74;100.00;101547.06;5031935;28;20046;-77
2024/02/01 00:13:59;;;;;;;5.00;3.42;;;;;;;6.64;100.00;101530.50;5029918;28;20041;-78
2024/02/01 00:16:27;;;;;;;3.75;3.00;;;;;;;6.69;100.00;101531.34;5045517;28;20033;-77
2024/02/01 00:18:55;;;;;;;4.68;3.22;;;;;;;6.81;100.00;101535.56;5025147;28;20054;-76
2024/02/01 00:21:23;;;;;;;5.60;3.58;;;;;;;7.00;100.00;101558.13;5027893;28;20173;-76
2024/02/01 00:23:52;;;;;;;4.45;3.42;;;;;;;6.74;100.00;101518.13;5045726;28;20049;-77
2024/02/01 00:26:27;;;;;;;4.82;3.15;;;;;;;6.99;100.00;101554.63;5025451;28;20046;-77
2024/02/01 00:28:55;;;;;;;5.90;3.38;;;;;;;6.88;100.00;101521.44;5023656;28;20053;-77
2024/02/01 00:31:23;;;;;;;4.38;3.08;;;;;;;7.09;100.00;101549.19;5024378;28;20045;-75
2024/02/01 00:33:56;;;;;;;6.40;3.85;;;;;;;7.05;100.00;101548.41;5006491;28;20065;-75
2024/02/01 00:36:24;;;;;;;4.82;3.55;;;;;;;7.09;100.00;101554.47;5031489;28;20098;-76
2024/02/01 00:38:54;;;;;;;5.35;3.42;;;;;;;7.16;100.00;101557.00;5031748;28;20037;-76
2024/02/01 00:41:24;;;;;;;;;;;;;;;7.14;100.00;101545.63;5026641;28;20037;-76
2024/02/01 00:43:53;;;;;;;5.95;2.95;;;;;;;7.14;100.00;101544.75;5024299;28;19956;-75
2024/02/01 00:46:25;;;;;;;6.43;3.25;;;;;;;7.17;100.00;101539.44;5009088;28;20041;-78
2024/02/01 00:48:53;;;;;;;4.95;3.15;;;;;;;7.14;100.00;101545.63;5024712;28;20046;-77
2024/02/01 00:51:26;;;;;;;5.57;3.25;;;;;;;7.07;100.00;101522.91;5023438;28;20247;-77
2024/02/01 00:53:56;;;;;;;5.30;3.10;;;;;;;7.10;100.00;101533.38;5019743;28;20042;-75
2024/02/01 00:56:32;;;;;;;6.53;3.08;;;;;;;7.04;100.00;101526.47;5019105;28;20050;-76
2024/02/01 00:59:02;;;;;;;5.97;3.17;;;;;;;6.89;100.00;101500.34;5026652;28;20037;-77
2024/02/01 01:01:31;;;;;;;4.75;3.20;;;;;;;7.08;100.00;101522.03;5025243;28;20062;-76
2024/02/01 01:04:02;;;;;;;6.40;3.30;;;;;;;7.09;100.00;101521.09;5030285;28;20094;-76
2024/02/01 01:06:30;;;;;;;6.82;3.65;;;;;;;7.10;100.00;101519.34;5018877;28;20034;-76
2024/02/01 01:08:59;;;;;;;4.97;3.42;;;;;;;7.12;100.00;101514.94;5025398;28;20041;-76
2024/02/01 01:11:32;;;;;;;5.53;3.22;;;;;;;7.13;100.00;101512.28;5026463;28;20360;-76
2024/02/01 01:14:00;;;;;;;5.75;3.55;;;;;;;7.13;100.00;101512.28;5015391;28;20038;-75
2024/02/01 01:16:29;;;;;;;5.28;3.50;;;;;;;7.15;100.00;101510.50;5017494;28;20129;-76
2024/02/01 01:18:57;;;;;;;5.57;3.60;;;;;;;7.13;100.00;101507.00;5019829;28;20056;-76
2024/02/01 01:21:25;;;;;;;4.95;3.10;;;;;;;7.04;100.00;101489.59;5036920;28;20077;-76
2024/02/01 01:23:54;;;;;;;5.35;3.20;;;;;;;7.17;100.00;101506.06;5007090;28;20061;-77
2024/02/01 01:26:23;;;;;;;5.20;3.20;;;;;;;7.22;100.00;101484.94;5020431;28;20128;-77
2024/02/01 01:28:52;;;;;;;5.47;3.22;;;;;;;7.09;100.00;101463.16;5027835;28;20055;-76
2024/02/01 01:31:23;;;;;;;6.75;3.15;;;;;;;7.23;100.00;101479.66;5027975;28;20097;-78
2024/02/01 01:33:51;;;;;;;6.13;3.22;;;;;;;7.21;100.00;101463.00;5028281;28;20042;-76
2024/02/01 01:36:20;;;;;;;5.30;3.38;;;;;;;7.27;100.00;101473.41;5020096;28;20058;-78
2024/02/01 01:38:49;;;;;;;6.82;3.05;;;;;;;7.15;100.00;101456.94;5017813;28;20045;-80
2024/02/01 01:41:18;;;;;;;6.05;3.25;;;;;;;7.10;100.00;101449.09;5020656;28;20052;-79
2024/02/01 01:43:46;;;;;;;5.53;3.28;;;;;;;7.15;100.00;101463.06;5021986;28;20410;-77
2024/02/01 01:46:15;;;;;;;4.95;2.97;;;;;;;7.23;100.00;101470.88;5013679;28;20501;-80
2024/02/01 01:48:43;;;;;;;5.80;2.97;;;;;;;7.12;100.00;101443.81;5017903;28;20053;-79
2024/02/01 01:51:11;;;;;;;6.75;2.92;;;;;;;7.19;100.00;101459.50;5017721;28;20069;-78
2024/02/01 01:53:41;;;;;;;6.28;3.30;;;;;;;7.31;100.00;101472.47;5015726;28;20042;-78
2024/02/01 01:56:09;;;;;;;4.55;3.03;;;;;;;7.15;100.00;101451.66;5028198;28;20563;-79
2024/02/01 01:58:41;;;;;;;4.50;2.83;;;;;;;7.01;100.00;101431.69;5010535;28;20042;-78
2024/02/01 02:01:10;;;;;;;5.28;2.70;;;;;;;7.19;100.00;101464.78;5012688;28;20046;-77
2024/02/01 02:03:43;;;;;;;5.10;3.08;;;;;;;7.27;100.00;101477.81;5013237;28;20061;-78
2024/02/01 02:06:11;;;;;;;6.47;3.13;;;;;;;7.22;100.00;101474.41;5016836;28;20076;-77
2024/02/01 02:08:41;;;;;;;5.95;2.80;;;;;;;7.26;100.00;101478.69;5024266;28;20105;-79
2024/02/01 02:11:09;;;;;;;3.78;2.63;;;;;;;7.16;100.00;101461.31;5044069;28;20234;-78
2024/02/01 02:13:46;;;;;;;4.78;3.25;;;;;;;7.25;100.00;101469.91;5023229;28;20042;-78
2024/02/01 02:16:16;;;;;;;4.68;2.95;;;;;;;7.23;100.00;101466.47;5011126;28;20050;-78
2024/02/01 02:18:45;;;;;;;4.00;3.10;;;;;;;7.15;100.00;101449.03;5024329;28;20132;-77
2024/02/01 02:21:18;;;;;;;4.22;2.85;;;;;;;7.03;100.00;101434.31;5017173;28;20084;-77
2024/02/01 02:23:49;;;;;;;6.25;3.47;;;;;;;7.24;100.00;101460.28;5029610;28;20045;-79
2024/02/01 02:26:20;;;;;;;4.65;3.03;;;;;;;7.21;100.00;101449.81;5018578;28;20033;-76
2024/02/01 02:28:48;;;;;;;3.72;2.80;;;;;;;7.14;100.00;101447.28;4998366;28;20129;-78
2024/02/01 02:31:19;;;;;;;4.25;3.15;;;;;;;7.17;100.00;101441.97;5031367;28;20486;-77
2024/02/01 02:33:48;;;;;;;5.18;3.00;;;;;;;7.33;100.00;101446.97;5020669;28;20151;-77
2024/02/01 02:36:16;;;;;;;4.20;2.88;;;;;;;7.34;100.00;101451.34;5019915;28;20038;-77
2024/02/01 02:38:44;;;;;;;5.70;2.50;;;;;;;7.25;100.00;101430.41;5019104;28;20049;-79
2024/02/01 02:41:13;;;;;;;6.13;2.90;;;;;;;7.39;100.00;101454.78;5018282;28;20095;-79
2024/02/01 02:43:42;;;;;;;6.53;3.10;;;;;;;7.42;100.00;101442.44;5021202;28;20046;-76
2024/02/01 02:46:11;;;;;;;4.82;3.17;;;;;;;7.47;100.00;101438.81;5020821;28;20752;-77
2024/02/01 02:48:38;;;;;;;6.05;3.60;;;;;;;7.45;100.00;101419.53;5018597;28;20049;-78
2024/02/01 02:51:07;;;;;;;3.72;2.42;;;;;;;7.53;100.00;101427.31;5023401;28;20042;-78
2024/02/01 02:53:36;;;;;;;5.50;3.17;;;;;;;7.38;100.00;101416.16;5015023;28;20038;-79
2024/02/01 02:56:06;;;;;;;4.63;3.03;;;;;;;7.31;100.00;101403.97;5010378;28;20084;-79
2024/02/01 02:58:37;;;;;;;5.40;3.25;;;;;;;7.52;100.00;101431.72;5014836;28;20395;-79
2024/02/01 03:01:08;;;;;;;4.13;3.25;;;;;;;7.51;100.00;101429.09;5016984;28;20046;-79
2024/02/01 03:03:40;;;;;;;9.30;3.55;;;;;;;7.50;100.00;101428.22;5003119;28;20042;-79
2024/02/01 03:06:08;;;;;;;5.22;3.28;;;;;;;7.52;100.00;101429.09;5008242;28;20046;-81
2024/02/01 03:08:39;;;;;;;6.30;4.20;;;;;;;7.56;100.00;101435.13;5019634;28;20068;-78
2024/02/01 03:11:10;;;;;;;6.43;4.20;;;;;;;7.41;100.00;101409.94;5020825;28;20097;-79
2024/02/01 03:13:45;;;;;;;6.95;4.05;;;;;;;7.56;100.00;101436.00;5016878;28;20041;-75
2024/02/01 03:16:17;;;;;;;8.25;4.10;;;;;;;7.48;100.00;101423.88;4997729;28;20137;-78
2024/02/01 03:18:49;;;;;;;4.70;3.75;;;;;;;7.67;100.00;101439.34;5036903;28;20046;-76
2024/02/01 03:21:18;;;;;;;7.28;4.38;;;;;;;7.67;100.00;101443.75;5023340;28;20046;-78
2024/02/01 03:23:48;;;;;;;6.77;4.53;;;;;;;7.62;100.00;101437.69;5028494;28;20046;-79
2024/02/01 03:26:18;;;;;;;6.27;4.70;;;;;;;7.61;100.00;101436.81;5011878;28;20061;-79
2024/02/01 03:28:49;;;;;;;7.63;4.72;;;;;;;7.57;100.00;101421.06;5019621;28;20469;-79
2024/02/01 03:31:18;;;;;;;8.13;4.82;;;;;;;7.47;100.00;101407.19;5010434;28;20450;-78
2024/02/01 03:33:49;;;;;;;7.45;4.70;;;;;;;7.58;100.00;101436.84;5015971;28;20092;-77
2024/02/01 03:36:20;;;;;;;6.00;4.28;;;;;;;7.62;100.00;101421.88;5016015;28;20114;-79
2024/02/01 03:38:49;;;;;;;8.85;5.20;;;;;;;7.62;100.00;101430.63;5016423;28;20109;-79
2024/02/01 03:41:19;;;;;;;7.68;5.18;;;;;;;7.63;100.00;101426.25;5023719;28;20025;-77
2024/02/01 03:43:49;;;;;;;9.07;5.57;;;;;;;7.53;100.00;101422.03;5009351;28;20122;-79
2024/02/01 03:46:19;;;;;;;9.27;5.63;;;;;;;7.56;100.00;101435.13;5020904;28;20061;-78
2024/02/01 03:48:48;;;;;;;9.23;5.47;;;;;;;7.56;100.00;101429.88;5020447;28;20033;-80
2024/02/01 03:51:18;;;;;;;7.85;5.57;;;;;;;7.30;100.00;101393.44;5028222;28;20054;-79
2024/02/01 03:53:48;;;;;;;10.73;6.18;;;;;;;7.45;100.00;101431.84;5012587;28;20038;-79
2024/02/01 03:56:23;;;;;;;8.38;6.00;;;;;;;7.32;100.00;101421.50;5001324;28;20234;-81
2024/02/01 03:59:00;;;;;;;9.82;5.97;;;;;;;7.34;100.00;101427.63;5015982;28;20049;-81
2024/02/01 04:01:29;;;;;;;12.13;6.38;;;;;;;7.32;100.00;101424.16;5019021;28;20052;-78
2024/02/01 04:04:00;;;;;;;;;;;;;;;7.27;100.00;101427.75;5011829;28;20503;-79
2024/02/01 04:06:37;;;;;;;10.98;6.80;;;;;;;7.10;100.00;101408.72;5018315;28;20355;-81
2024/02/01 04:09:06;;;;;;;10.55;6.47;;;;;;;7.03;100.00;101410.59;5039051;28;20029;-78
2024/02/01 04:11:34;;;;;;;14.30;7.00;;;;;;;6.89;100.00;101416.09;5022295;28;20668;-80
2024/02/01 04:14:04;;;;;;;9.43;6.75;;;;;;;6.74;100.00;101416.31;5017550;28;20046;-78
2024/02/01 04:16:33;;;;;;;14.05;7.72;;;;;;;6.75;100.00;101443.53;5018423;28;20241;-80
2024/02/01 04:19:10;;;;;;;10.23;7.50;;;;;;;6.51;100.00;101408.75;5020938;28;20057;-80
2024/02/01 04:21:48;;;;;;;11.85;8.02;;;;;;;6.57;100.00;101440.25;5026974;28;20522;-78
2024/02/01 04:24:18;;;;;;;12.27;7.80;;;;;;;6.58;100.00;101452.53;5033741;28;20096;-78
2024/02/01 04:26:47;;;;;;;14.10;8.57;;;;;;;6.51;100.00;101447.34;5020314;28;20112;-77
2024/02/01 04:29:21;;;;;;;14.35;8.20;;;;;;;6.50;100.00;101454.38;5010024;28;20050;-77
2024/02/01 04:31:50;;;;;;;14.07;8.70;;;;;;;6.37;100.00;101442.28;5014332;28;20044;-79
2024/02/01 04:34:19;;;;;;;11.88;8.25;;;;;;;6.50;100.00;101459.63;5002002;28;20061;-78
2024/02/01 04:36:48;;;;;;;11.73;8.15;;;;;;;6.56;100.00;101464.84;5032763;28;20104;-79
2024/02/01 04:39:17;;;;;;;13.77;8.73;;;;;;;6.38;100.00;101427.38;5018978;28;20049;-82
2024/02/01 04:41:45;;;;;;;14.13;9.13;;;;;;;6.56;100.00;101467.47;5025842;28;20073;-81
2024/02/01 04:44:14;;;;;;;15.55;9.50;;;;;;;6.33;100.00;101427.41;5016813;28;20105;-81
2024/02/01 04:46:44;;;;;;;15.30;9.60;;;;;;;6.48;100.00;101457.91;5016667;28;20053;-81
2024/02/01 04:49:14;;;;;;;13.38;10.18;;;;;;;6.40;100.00;101454.53;5023672;28;20080;-78
2024/02/01 04:51:42;;;;;;;16.88;10.15;;;;;;;6.36;100.00;101456.31;5015770;28;20489;-77
2024/02/01 04:54:11;;;;;;;19.38;10.70;;;;;;;6.31;100.00;101456.38;5009399;28;20045;-78
2024/02/01 04:56:40;;;;;;;18.58;11.55;;;;;;;6.26;100.00;101452.06;5012503;28;20042;-78
2024/02/01 04:59:09;;;;;;;18.48;10.93;;;;;;;6.22;100.00;101448.59;5012483;28;20149;-77
2024/02/01 05:01:38;;;;;;;17.70;11.60;;;;;;;6.23;100.00;101457.38;5009040;28;20054;-80
2024/02/01 05:04:13;;;;;;;19.90;11.80;;;;;;;6.11;100.00;101439.13;4994590;28;20034;-78
2024/02/01 05:06:42;;;;;;;18.05;12.02;;;;;;;6.20;100.00;101446.88;5001918;28;20041;-78
2024/02/01 05:09:25;;;;;;;;;;;;;;;6.24;100.00;101448.59;5008740;28;20062;-80
2024/02/01 05:11:55;;;;;;;19.13;11.93;;;;;;;6.24;100.00;101440.69;5009770;28;19936;-79
2024/02/01 05:14:26;;;;;;;20.77;13.17;;;;;;;6.18;100.00;101436.38;5010065;28;20128;-78
2024/02/01 05:16:55;;;;;;;23.20;12.65;;;;;;;6.18;100.00;101444.25;5002551;28;20068;-78
2024/02/01 05:19:26;;;;;;;23.85;12.85;;;;;;;6.19;100.00;101445.13;5006769;28;20042;-79
2024/02/01 05:21:57;;;;;;;18.38;13.35;;;;;;;6.19;100.00;101445.13;5009614;28;20050;-79
2024/02/01 05:24:28;;;;;;;22.87;13.40;;;;;;;6.15;100.00;101422.38;5010289;28;20053;-78
2024/02/01 05:26:59;;;;;;;23.60;13.68;;;;;;;6.09;100.00;101417.22;5005049;28;20330;-77
2024/02/01 05:29:36;;;;;;;22.33;13.27;;;;;;;6.13;100.00;101426.81;5002440;28;20061;-77
2024/02/01 05:32:08;;;;;;;21.23;14.00;;;;;;;6.11;100.00;101447.88;5002130;28;20049;-77
2024/02/01 05:34:37;;;;;;;29.25;14.90;;;;;;;6.03;100.00;101438.31;5005603;28;20049;-78
2024/02/01 05:37:10;;;;;;;24.60;14.70;;;;;;;6.01;100.00;101435.69;5006481;28;20050;-77
2024/02/01 05:39:44;;;;;;;28.17;15.23;;;;;;;6.04;100.00;101438.31;5008038;28;20034;-78
2024/02/01 05:42:15;;;;;;;24.30;14.98;;;;;;;5.99;100.00;101433.09;5014219;28;20519;-77
2024/02/01 05:44:44;;;;;;;23.85;15.05;;;;;;;6.02;100.00;101426.06;5016771;28;20038;-78
2024/02/01 05:47:12;;;;;;;26.20;14.73;;;;;;;6.08;100.00;101433.88;4984200;28;20054;-77
2024/02/01 05:49:47;;;;;;;24.17;14.77;;;;;;;6.15;100.00;101432.91;4991744;28;20495;-78
2024/02/01 05:52:19;;;;;;;24.40;14.95;;;;;;;6.14;100.00;101441.72;5008372;28;20054;-78
2024/02/01 05:54:51;;;;;;;25.70;14.27;;;;;;;6.16;100.00;101451.28;5002381;28;20054;-78
2024/02/01 05:57:22;;;;;;;23.92;14.77;;;;;;;6.16;100.00;101450.44;5001506;28;20484;-80
2024/02/01 05:59:54;;;;;;;23.88;15.18;;;;;;;6.18;100.00;101453.91;5005859;28;20049;-79
2024/02/01 06:02:25;;;;;;;25.13;15.23;;;;;;;6.18;100.00;101441.63;5007355;28;20053;-79
2024/02/01 06:04:58;;;;;;;22.33;14.73;;;;;;;6.22;100.00;101447.72;4988633;28;20042;-79
2024/02/01 06:07:30;;;;;;;26.00;15.27;;;;;;;6.04;100.00;101434.81;5012499;28;20514;-79
2024/02/01 06:09:59;;;;;;;28.40;16.02;;;;;;;6.16;100.00;101445.16;5021674;28;20149;-79
2024/02/01 06:12:29;;;;;;;31.77;16.25;;;;;;;6.15;100.00;101461.84;5010708;28;20042;-80
2024/02/01 06:15:02;;;;;;;26.65;15.70;;;;;;;6.08;100.00;101445.28;5011149;28;20038;-79
2024/02/01 06:17:33;;;;;;;27.08;15.52;;;;;;;6.15;100.00;101460.06;5019659;28;20046;-79
2024/02/01 06:20:04;;;;;;;25.70;15.32;;;;;;;5.98;100.00;101428.72;5017372;28;20069;-79
2024/02/01 06:22:32;;;;;;;26.30;15.85;;;;;;;6.12;100.00;101454.00;4987942;28;20049;-78
2024/02/01 06:25:03;;;;;;;30.42;17.45;;;;;;;6.17;100.00;101465.31;5005519;28;20140;-78
2024/02/01 06:27:37;;;;;;;28.55;17.00;;;;;;;6.21;100.00;101472.28;4998919;28;20075;-79
2024/02/01 06:30:10;;;;;;;29.23;16.50;;;;;;;6.22;100.00;101477.53;4996511;28;20051;-78
2024/02/01 06:32:40;;;;;;;26.77;16.92;;;;;;;6.19;100.00;101460.91;4999999;28;20042;-78
2024/02/01 06:35:16;;;;;;;33.07;17.73;;;;;;;6.22;100.00;101466.16;5009797;28;20132;-79
2024/02/01 06:37:52;;;;;;;28.02;16.38;;;;;;;6.11;100.00;101445.25;5002306;28;20506;-78
2024/02/01 06:40:48;;;;;;;29.08;16.30;;;;;;;6.24;100.00;101462.63;5005944;28;20046;-78
2024/02/01 06:43:31;;;;;;;27.05;17.05;;;;;;;6.33;100.00;101470.38;4991343;28;20128;-78
2024/02/01 06:46:09;;;;;;;29.58;16.33;;;;;;;6.37;100.00;101467.72;5006001;28;20057;-79
2024/02/01 06:48:46;;;;;;;26.45;16.52;;;;;;;6.37;100.00;101470.34;5002912;28;20110;-79
2024/02/01 06:51:25;;;;;;;25.27;16.27;;;;;;;6.36;100.00;101463.34;5005967;28;20042;-79
2024/02/01 06:53:57;;;;;;;27.88;16.02;;;;;;;6.32;100.00;101463.38;5004842;28;20056;-78
2024/02/01 06:56:48;;;;;;;24.38;16.38;;;;;;;6.42;100.00;101473.78;5008257;28;20536;-78
2024/02/01 06:59:30;;;;;;;27.17;15.95;;;;;;;6.42;100.00;101464.16;5013803;28;20048;-80
2024/02/01 07:02:11;;;;;;;24.55;15.80;;;;;;;6.45;100.00;101463.25;4999922;28;20045;-78
2024/02/01 07:04:53;;;;;;;21.95;15.23;;;;;;;6.56;100.00;101478.00;5009639;28;20056;-79
2024/02/01 07:07:26;;;;;;;23.05;15.00;;;;;;;6.58;100.00;101470.94;5004435;28;20156;-78
2024/02/01 07:10:06;;;;;;;24.60;14.98;;;;;;;6.50;100.00;101450.88;5019268;28;20056;-79
2024/02/01 07:12:41;;;;;;;23.17;14.60;;;;;;;6.63;100.00;101482.25;5015081;28;20483;-80
2024/02/01 07:18:05;;;;;;;24.75;15.40;;;;;;;6.59;100.00;101480.59;5021335;28;20085;-78
2024/02/01 07:20:35;;;;;;;26.52;15.85;;;;;;;6.56;100.00;101487.66;5016744;28;20153;-80
2024/02/01 07:23:33;;;;;;;24.13;15.63;;;;;;;6.48;100.00;101487.72;5018873;28;20064;-79
2024/02/01 07:26:02;;;;;;;26.75;16.27;;;;;;;6.43;100.00;101492.19;5030958;28;20145;-79
2024/02/01 07:59:26;;;;;;;25.77;15.60;;;;;;;6.71;100.00;101550.63;5013411;28;20081;-80
2024/02/01 08:02:23;;;;;;;25.15;15.95;;;;;;;6.72;100.00;101557.63;5027194;28;20060;-79
2024/02/01 08:08:04;;;;;;;25.25;16.13;;;;;;;6.79;100.00;101555.75;4984056;28;20172;-78
2024/02/01 08:10:34;;;;;;;22.92;15.52;;;;;;;6.72;100.00;101544.47;5000983;28;20065;-79
2024/02/01 08:13:08;;;;;;;26.98;15.77;;;;;;;6.71;100.00;101539.22;5011399;28;20086;-78
2024/02/01 08:15:37;;;;;;;29.17;16.25;;;;;;;6.72;100.00;101535.69;5008737;28;20060;-76
2024/02/01 08:18:08;;;;;;;23.30;15.32;;;;;;;6.97;100.00;101585.38;5022978;28;20576;-78
2024/02/01 08:20:38;;;;;;;25.10;14.90;;;;;;;6.99;100.00;101587.97;5010823;28;20054;-79
2024/02/01 08:23:07;;;;;;;27.67;18.08;;;;;;;7.04;100.00;101600.22;5029328;28;20056;-78
2024/02/01 08:25:40;;;;;;;22.15;15.25;;;;;;;7.10;100.00;101601.88;5029753;28;20054;-76
2024/02/01 08:28:14;;;;;;;20.15;14.68;;;;;;;7.11;100.00;101598.34;5006007;28;20062;-77
2024/02/01 08:30:44;;;;;;;22.33;14.27;;;;;;;7.16;100.00;101606.19;5023121;28;20067;-79
2024/02/01 08:33:18;;;;;;;20.40;15.45;;;;;;;7.18;100.00;101600.00;5022878;28;20046;-76
2024/02/01 08:35:48;;;;;;;26.75;16.45;;;;;;;7.26;100.00;101607.78;5024479;28;20380;-77
2024/02/01 08:38:15;;;;;;;23.48;15.27;;;;;;;7.30;100.00;101599.84;5019968;28;20773;-78
2024/02/01 08:40:43;;;;;;;18.60;14.00;;;;;;;7.34;100.00;101601.53;5034615;28;20034;-77
2024/02/01 08:43:14;;;;;;;22.05;14.48;;;;;;;7.34;100.00;101600.66;5000036;28;20121;-80
2024/02/01 08:45:46;;;;;;;20.23;14.45;;;;;;;7.45;100.00;101605.78;5004784;28;20119;-78
2024/02/01 08:48:15;;;;;;;19.08;14.00;;;;;;;7.46;100.00;101602.25;5001220;28;20405;-78
2024/02/01 08:50:46;;;;;;;21.85;14.52;;;;;;;7.47;100.00;101607.50;5023910;28;20394;-77
2024/02/01 08:53:22;;;;;;;21.88;14.32;;;;;;;7.50;100.00;101606.59;5006360;28;20474;-80
2024/02/01 08:55:52;;;;;;;30.85;15.20;;;;;;;7.52;100.00;101616.22;5009944;28;20034;-77
2024/02/01 08:58:23;;;;;;;;;;;;;;;7.55;100.00;101615.31;5016305;28;20054;-78
2024/02/01 09:00:51;;;;;;;20.60;14.77;;;;;;;7.54;100.00;101595.09;5004787;28;20020;-78
2024/02/01 09:03:29;;;;;;;20.60;15.38;;;;;;;7.83;100.00;101621.88;5022098;28;20056;-78
2024/02/01 09:06:08;;;;;;;18.83;13.82;;;;;;;7.91;100.00;101619.09;5002417;28;20053;-78
2024/02/01 09:08:39;;;;;;;16.05;12.88;;;;;;;7.77;100.00;101608.78;4997571;28;20053;-76
2024/02/01 09:11:11;;;;;;;18.67;13.00;;;;;;;7.91;100.00;101633.16;5019219;28;21225;-78
2024/02/01 09:13:44;;;;;;;16.52;12.82;;;;;;;7.70;100.00;101607.16;5017040;28;20489;-79
2024/02/01 09:16:16;;;;;;;16.17;12.30;;;;;;;7.90;100.00;101635.81;5023307;28;20121;-77
2024/02/01 09:18:48;;;;;;;14.93;11.68;;;;;;;7.83;100.00;101613.09;4979828;28;20045;-75
2024/02/01 09:21:18;;;;;;;19.17;11.20;;;;;;;7.90;100.00;101631.41;4994625;28;21036;-77
2024/02/01 09:23:47;;;;;;;16.58;11.07;;;;;;;7.89;100.00;101615.63;5022872;28;20092;-78
2024/02/01 09:26:16;;;;;;;17.85;10.60;;;;;;;7.98;100.00;101632.19;5023146;28;20041;-76
2024/02/01 09:28:46;;;;;;;14.15;10.65;;;;;;;7.86;100.00;101611.28;5003979;28;20050;-77
2024/02/01 09:31:23;;;;;;;13.60;10.45;;;;;;;7.97;100.00;101633.06;5035398;28;20622;-77
2024/02/01 09:33:55;;;;;;;;;;;;;;;8.16;100.00;101632.78;5043585;28;20029;-77
2024/02/01 09:36:28;;;;;;;12.25;9.40;;;;;;;8.28;100.00;101630.78;5030401;28;19925;-78
2024/02/01 09:38:57;;;;;;;15.30;10.43;;;;;;;8.47;100.00;101631.34;5010787;28;20041;-78
2024/02/01 09:41:30;;;;;;;14.32;9.68;;;;;;;8.59;100.00;101628.47;4999943;28;20084;-78
2024/02/01 09:44:00;;;;;;;14.35;9.80;;;;;;;8.69;100.00;101627.38;5023205;28;20478;-78
2024/02/01 09:46:34;;;;;;;11.45;9.32;;;;;;;8.83;100.00;101636.78;5023642;28;20058;-78
2024/02/01 09:49:04;;;;;;;12.57;9.82;;;;;;;8.92;100.00;101639.28;5013427;28;20052;-78
2024/02/01 09:51:46;;;;;;;12.40;9.50;;;;;;;8.91;100.00;101658.66;5008095;28;21619;-77
2024/02/01 09:54:15;;;;;;;10.70;9.00;;;;;;;8.75;100.00;101643.13;5008412;28;20103;-76
2024/02/01 09:56:45;;;;;;;12.85;8.95;;;;;;;8.69;100.00;101637.94;5010345;28;20061;-76
2024/02/01 09:59:17;;;;;;;;;;;;;;;8.73;100.00;101650.19;4998689;28;20061;-77
2024/02/01 10:01:49;;;;;;;13.30;9.07;;;;;;;8.58;100.00;101650.50;5004601;28;20088;-77
2024/02/01 10:04:17;;;;;;;12.63;9.40;;;;;;;8.47;100.00;101664.78;4990812;28;20054;-78
2024/02/01 10:06:54;;;;;;;13.07;9.95;;;;;;;8.42;100.00;101663.09;5016937;28;20060;-77
2024/02/01 10:09:22;;;;;;;12.95;9.75;;;;;;;8.30;100.00;101678.25;4993133;28;20049;-74
2024/02/01 10:11:54;;;;;;;13.20;10.65;;;;;;;8.34;100.00;101693.19;5012652;28;20161;-77
2024/02/01 10:14:37;;;;;;;14.70;10.52;;;;;;;8.40;100.00;101691.28;5008089;28;20069;-77
2024/02/01 10:17:06;;;;;;;13.77;10.38;;;;;;;8.46;100.00;101669.19;5002688;28;20599;-77
2024/02/01 10:19:37;;;;;;;14.27;10.02;;;;;;;8.67;100.00;101683.75;5014537;28;20057;-77
2024/02/01 10:22:08;;;;;;;13.90;9.63;;;;;;;8.68;100.00;101677.59;4989701;28;20054;-75
2024/02/01 10:24:48;;;;;;;13.48;9.40;;;;;;;8.62;100.00;101675.94;5003447;28;20056;-77
2024/02/01 10:27:23;;;;;;;12.48;8.80;;;;;;;8.56;100.00;101678.69;5028378;28;20080;-77
2024/02/01 10:29:58;;;;;;;11.15;7.43;;;;;;;8.47;100.00;101667.44;5015160;28;20061;-79
2024/02/01 10:32:35;;;;;;;11.77;7.43;;;;;;;8.48;100.00;101675.34;5014065;28;20045;-78
2024/02/01 10:35:05;;;;;;;11.00;7.32;;;;;;;8.48;100.00;101672.69;5008802;28;20053;-77
2024/02/01 10:37:33;;;;;;;11.43;7.63;;;;;;;8.34;100.00;101661.50;5021698;28;20096;-77
2024/02/01 10:40:06;;;;;;;10.52;7.10;;;;;;;8.39;100.00;101664.91;4995096;28;20493;-77
2024/02/01 10:42:36;;;;;;;11.52;6.80;;;;;;;8.42;100.00;101664.88;5002392;28;20045;-77
2024/02/01 10:45:12;;;;;;;10.32;8.05;;;;;;;8.59;100.00;101668.06;5013430;28;20037;-78
2024/02/01 10:47:45;;;;;;;10.80;7.68;;;;;;;8.70;100.00;101670.50;5011370;28;20629;-76
2024/02/01 10:50:14;;;;;;;9.65;7.45;;;;;;;8.76;100.00;101666.00;5007086;28;20054;-75
2024/02/01 10:52:53;;;;;;;11.15;7.63;;;;;;;8.91;100.00;101670.09;5027806;28;20156;-77
2024/02/01 10:55:23;;;;;;;12.10;7.43;;;;;;;9.03;100.00;101668.97;5009796;28;20282;-77
2024/02/01 10:57:51;;;;;;;9.90;7.10;;;;;;;9.04;100.00;101665.44;5002099;28;20093;-75
2024/02/01 11:00:23;;;;;;;10.40;7.78;;;;;;;9.08;100.00;101667.13;5000599;28;20049;-77
2024/02/01 11:02:56;;;;;;;9.45;7.50;;;;;;;9.22;100.00;101662.41;5020731;28;20282;-76
2024/02/01 11:05:29;;;;;;;13.65;8.27;;;;;;;9.28;100.00;101658.78;5013862;28;20395;-75
2024/02/01 11:08:02;;;;;;;7.68;6.68;;;;;;;9.29;100.00;101666.66;5015718;28;20041;-78
2024/02/01 11:10:32;;;;;;;9.52;7.18;;;;;;;9.30;100.00;101670.16;4990484;28;20117;-72
2024/02/01 11:13:04;;;;;;;10.77;7.07;;;;;;;9.20;100.00;101674.78;4998838;28;20045;-75
2024/02/01 11:15:37;;;;;;;11.23;7.85;;;;;;;8.97;100.00;101672.59;4984555;28;20072;-77
2024/02/01 11:18:10;;;;;;;13.02;7.88;;;;;;;8.85;100.00;101659.63;4995143;28;20049;-76
2024/02/01 11:20:41;;;;;;;14.02;8.60;;;;;;;8.99;100.00;101675.22;4993639;28;20541;-78
2024/02/01 11:23:11;;;;;;;14.07;8.05;;;;;;;9.07;100.00;101678.59;5001111;28;20046;-76
2024/02/01 11:25:40;;;;;;;13.77;7.23;;;;;;;9.09;100.00;101690.00;5004569;28;20050;-78
2024/02/01 11:28:11;;;;;;;8.98;7.05;;;;;;;9.04;100.00;101687.44;4999101;28;20496;-73
2024/02/01 11:30:53;;;;;;;8.13;5.47;;;;;;;9.04;100.00;101694.50;5010361;28;20071;-76
2024/02/01 11:33:34;;;;;;;8.98;5.78;;;;;;;9.00;100.00;101691.03;5026064;28;20041;-77
2024/02/01 11:36:06;;;;;;;9.60;6.32;;;;;;;8.98;100.00;101700.75;5031638;28;20086;-77
2024/02/01 11:38:40;;;;;;;;;;;;;;;8.99;100.00;101693.72;5011371;28;20159;-77
2024/02/01 11:41:14;;;;;;;8.77;5.93;;;;;;;8.94;100.00;101695.59;5024845;28;19988;-78
2024/02/01 11:43:42;;;;;;;8.27;5.22;;;;;;;8.70;100.00;101671.38;5028575;28;20642;-78
2024/02/01 11:46:14;;;;;;;7.85;5.30;;;;;;;8.93;100.00;101710.56;4994837;28;20042;-78
2024/02/01 11:48:43;;;;;;;7.88;5.32;;;;;;;8.84;100.00;101688.72;5025345;28;20405;-75
2024/02/01 11:51:14;;;;;;;8.93;5.35;;;;;;;8.93;100.00;101709.69;4969169;28;20042;-77
2024/02/01 11:53:44;;;;;;;9.25;5.70;;;;;;;9.03;100.00;101716.53;4997379;28;20057;-77
2024/02/01 11:56:15;;;;;;;11.07;5.57;;;;;;;9.07;100.00;101710.28;5007627;28;20412;-77
2024/02/01 11:58:43;;;;;;;8.02;5.35;;;;;;;9.06;100.00;101705.91;5002936;28;20152;-76
2024/02/01 12:01:14;;;;;;;8.70;5.55;;;;;;;8.79;100.00;101686.19;5018375;28;20033;-77
2024/02/01 12:03:49;;;;;;;7.28;5.35;;;;;;;8.78;100.00;101708.22;5013094;28;20046;-77
2024/02/01 12:06:22;;;;;;;8.55;5.53;;;;;;;8.52;100.00;101670.84;5035403;28;20076;-77
2024/02/01 12:08:53;;;;;;;9.10;6.38;;;;;;;8.69;100.00;101706.59;5023651;28;20264;-78
2024/02/01 12:11:28;;;;;;;8.80;6.00;;;;;;;8.58;100.00;101708.56;5027432;28;20033;-77
2024/02/01 12:14:00;;;;;;;9.98;6.30;;;;;;;8.66;100.00;101727.78;5004806;28;20049;-76
2024/02/01 12:16:32;;;;;;;11.30;6.40;;;;;;;8.65;100.00;101718.16;5014547;28;20049;-77